Time;durP1;ratioP1;P1;durP2;ratioP2;P2;SDS_P1;SDS_P2;PMS_P1;PMS_P2;Temp;Humidity;BMP_temperature;BMP_pressure;BME280_temperature;BME280_humidity;BME280_pressure;Samples;Min_cycle;Max_cycle;Signal;HPM_P1;HPM_P2
2021/07/17 00:01:36;;;;;;;26.63;17.20;;;18.40;99.90;;;;;;5045856;28;20044;-75
2021/07/17 00:04:03;;;;;;;26.23;16.90;;;18.40;99.90;;;;;;5046330;28;20040;-75
2021/07/17 00:06:28;;;;;;;25.83;17.45;;;18.40;99.90;;;;;;5029504;28;20052;-75
2021/07/17 00:08:57;;;;;;;25.85;16.45;;;18.30;99.90;;;;;;5010987;28;20160;-75
2021/07/17 00:11:26;;;;;;;25.48;17.25;;;18.40;99.90;;;;;;5029195;28;20033;-74
2021/07/17 00:13:54;;;;;;;27.98;17.33;;;18.40;99.90;;;;;;5046329;28;20025;-76
2021/07/17 00:16:26;;;;;;;22.88;16.23;;;18.40;99.90;;;;;;5047308;28;20043;-75
2021/07/17 00:18:52;;;;;;;;;;;18.30;99.90;;;;;;5030455;28;20025;-74
2021/07/17 00:21:18;;;;;;;24.17;15.98;;;18.30;99.90;;;;;;5050517;28;20361;-75
2021/07/17 00:23:46;;;;;;;27.55;16.80;;;18.30;99.90;;;;;;5049733;28;20040;-76
2021/07/17 00:26:11;;;;;;;25.90;17.15;;;18.30;99.90;;;;;;5031167;28;20094;-75
2021/07/17 00:28:42;;;;;;;23.35;16.52;;;18.30;99.90;;;;;;5031435;28;21908;-75
2021/07/17 00:31:08;;;;;;;23.13;16.20;;;18.30;99.90;;;;;;5049854;28;20479;-75
2021/07/17 00:33:36;;;;;;;26.60;17.00;;;18.30;99.90;;;;;;5049423;28;20098;-75
2021/07/17 00:36:02;;;;;;;23.83;16.83;;;18.30;99.90;;;;;;5032539;28;20048;-75
2021/07/17 00:38:30;;;;;;;24.73;16.73;;;18.40;99.90;;;;;;5049247;28;20496;-75
2021/07/17 00:40:55;;;;;;;23.40;15.68;;;18.40;99.90;;;;;;5050058;28;20035;-75
2021/07/17 00:43:21;;;;;;;25.02;16.27;;;18.40;99.90;;;;;;5050199;28;20032;-74
2021/07/17 00:45:48;;;;;;;22.55;15.85;;;18.40;99.90;;;;;;5032549;28;20128;-74
2021/07/17 00:48:15;;;;;;;23.58;16.00;;;18.30;99.90;;;;;;5049904;28;20037;-75
2021/07/17 00:50:43;;;;;;;23.05;16.17;;;18.30;99.90;;;;;;5049897;28;20029;-75
2021/07/17 00:53:13;;;;;;;20.35;15.20;;;18.30;99.90;;;;;;5032334;28;20060;-75
2021/07/17 00:55:40;;;;;;;21.15;16.15;;;18.40;99.90;;;;;;5050743;28;20044;-74
2021/07/17 00:58:06;;;;;;;19.90;14.48;;;18.30;99.90;;;;;;5041859;28;20646;-76
2021/07/17 01:00:34;;;;;;;22.88;14.50;;;18.40;99.90;;;;;;5031211;28;20031;-75
2021/07/17 01:03:06;;;;;;;20.02;14.68;;;18.40;99.90;;;;;;5014438;28;20029;-75
2021/07/17 01:05:32;;;;;;;22.30;15.60;;;18.40;99.90;;;;;;5050737;28;20131;-75
2021/07/17 01:07:58;;;;;;;19.10;14.20;;;18.30;99.90;;;;;;5029836;28;20484;-75
2021/07/17 01:10:28;;;;;;;22.40;14.38;;;18.40;99.90;;;;;;5033141;28;20033;-75
2021/07/17 01:12:54;;;;;;;19.45;14.27;;;18.40;99.90;;;;;;5048730;28;20122;-75
2021/07/17 01:15:20;;;;;;;20.73;14.15;;;18.40;99.90;;;;;;5032052;28;20454;-75
2021/07/17 01:17:46;;;;;;;20.63;15.50;;;18.40;99.90;;;;;;5049227;28;20029;-75
2021/07/17 01:20:14;;;;;;;23.83;14.90;;;18.40;99.90;;;;;;5030299;28;20481;-75
2021/07/17 01:22:42;;;;;;;18.75;15.27;;;18.40;99.90;;;;;;5048773;28;20071;-74
2021/07/17 01:25:11;;;;;;;20.30;15.25;;;18.40;99.90;;;;;;5047932;28;20043;-74
2021/07/17 01:27:37;;;;;;;20.92;15.07;;;18.40;99.90;;;;;;5004351;28;20037;-75
2021/07/17 01:30:15;;;;;;;20.17;14.85;;;18.40;99.90;;;;;;5030536;28;20021;-74
2021/07/17 01:32:42;;;;;;;22.45;14.95;;;18.40;99.90;;;;;;5013199;28;20431;-75
2021/07/17 01:35:10;;;;;;;23.90;15.57;;;18.40;99.90;;;;;;5046704;28;20331;-75
2021/07/17 01:37:35;;;;;;;22.05;15.73;;;18.30;99.90;;;;;;5048380;28;20065;-76
2021/07/17 01:40:04;;;;;;;20.95;15.63;;;18.30;99.90;;;;;;5047470;28;20678;-74
2021/07/17 01:42:32;;;;;;;22.23;14.80;;;18.30;99.90;;;;;;5032056;28;20064;-75
2021/07/17 01:44:58;;;;;;;19.42;14.15;;;18.30;99.90;;;;;;5032165;28;20035;-74
2021/07/17 01:47:26;;;;;;;18.33;14.63;;;18.30;99.90;;;;;;5048358;28;20025;-75
2021/07/17 01:49:51;;;;;;;17.95;14.45;;;18.30;99.90;;;;;;4335747;28;9999822;-75
2021/07/17 01:52:17;;;;;;;20.10;14.05;;;18.30;99.90;;;;;;5030890;28;20033;-74
2021/07/17 01:54:43;;;;;;;17.98;13.85;;;18.30;99.90;;;;;;5048145;28;20032;-75
2021/07/17 01:57:08;;;;;;;19.80;14.10;;;18.30;99.90;;;;;;5027277;28;20029;-76
2021/07/17 01:59:45;;;;;;;19.05;13.57;;;18.30;99.90;;;;;;5031015;28;20025;-74
2021/07/17 02:02:12;;;;;;;19.75;13.85;;;18.30;99.90;;;;;;5048241;28;20108;-75
2021/07/17 02:04:37;;;;;;;19.40;13.50;;;18.20;99.90;;;;;;5048417;28;20024;-75
2021/07/17 02:07:04;;;;;;;21.23;13.65;;;18.20;99.90;;;;;;5046698;28;20071;-75
2021/07/17 02:09:31;;;;;;;19.02;13.00;;;18.30;99.90;;;;;;5047178;28;20071;-75
2021/07/17 02:12:00;;;;;;;17.80;12.70;;;18.30;99.90;;;;;;5047446;28;20583;-75
2021/07/17 02:14:26;;;;;;;15.90;12.88;;;18.30;99.90;;;;;;5029964;28;20493;-75
2021/07/17 02:16:51;;;;;;;17.55;13.10;;;18.30;99.90;;;;;;5046580;28;20485;-75
2021/07/17 02:19:26;;;;;;;15.90;12.77;;;18.20;99.90;;;;;;5046525;28;20040;-76
2021/07/17 02:21:54;;;;;;;19.13;12.63;;;18.20;99.90;;;;;;5046190;28;20122;-75
2021/07/17 02:24:22;;;;;;;16.02;12.05;;;18.20;99.90;;;;;;5045946;28;20028;-75
2021/07/17 02:26:49;;;;;;;17.60;12.32;;;18.20;99.90;;;;;;5046550;28;20029;-75
2021/07/17 02:29:15;;;;;;;16.58;11.57;;;18.20;99.90;;;;;;5045549;28;20116;-76
2021/07/17 02:31:41;;;;;;;16.33;11.27;;;18.20;99.90;;;;;;5045685;28;20025;-75
2021/07/17 02:34:08;;;;;;;15.82;11.27;;;18.30;99.90;;;;;;5063279;28;20064;-75
2021/07/17 02:36:33;;;;;;;14.60;10.80;;;18.30;99.90;;;;;;5046881;28;20056;-75
2021/07/17 02:39:01;;;;;;;14.50;11.07;;;18.20;99.90;;;;;;5048096;28;20457;-75
2021/07/17 02:41:27;;;;;;;14.07;11.27;;;18.30;99.90;;;;;;5047833;28;20048;-75
2021/07/17 02:43:53;;;;;;;16.00;11.35;;;18.20;99.90;;;;;;5046772;28;20033;-75
2021/07/17 02:46:21;;;;;;;15.48;10.80;;;18.20;99.90;;;;;;5013290;28;20047;-76
2021/07/17 02:48:46;;;;;;;13.88;10.95;;;18.20;99.90;;;;;;5013573;28;20602;-75
2021/07/17 02:51:14;;;;;;;13.35;11.02;;;18.20;99.90;;;;;;5047232;28;20024;-75
2021/07/17 02:53:40;;;;;;;15.30;10.32;;;18.30;99.90;;;;;;5047040;28;20033;-76
2021/07/17 02:56:06;;;;;;;13.85;11.43;;;18.20;99.90;;;;;;5047012;28;20055;-76
2021/07/17 02:58:34;;;;;;;16.02;11.50;;;18.20;99.90;;;;;;5047313;28;20159;-75
2021/07/17 03:00:59;;;;;;;16.65;11.57;;;18.20;99.90;;;;;;5047376;28;20043;-75
2021/07/17 03:03:25;;;;;;;14.80;10.55;;;18.30;99.90;;;;;;5046670;28;21832;-76
2021/07/17 03:05:51;;;;;;;12.95;10.75;;;18.30;99.90;;;;;;5046901;28;20025;-76
2021/07/17 03:08:23;;;;;;;14.85;11.05;;;18.30;99.90;;;;;;5030992;28;20068;-75
2021/07/17 03:10:51;;;;;;;13.68;10.73;;;18.30;99.90;;;;;;5046697;28;20086;-75
2021/07/17 03:13:17;;;;;;;14.32;10.25;;;18.30;99.90;;;;;;5028102;28;20039;-75
2021/07/17 03:15:43;;;;;;;13.43;9.75;;;18.30;99.90;;;;;;5029432;28;20029;-75
2021/07/17 03:18:11;;;;;;;11.85;9.48;;;18.30;99.90;;;;;;5029801;28;20037;-75
2021/07/17 03:20:37;;;;;;;14.70;10.15;;;18.30;99.90;;;;;;5030150;28;20103;-76
2021/07/17 03:23:04;;;;;;;13.73;9.40;;;18.30;99.90;;;;;;5046572;28;20043;-76
2021/07/17 03:25:30;;;;;;;13.18;9.77;;;18.30;99.90;;;;;;5030741;28;21974;-76
2021/07/17 03:27:55;;;;;;;15.95;10.70;;;18.30;99.90;;;;;;5045445;28;20111;-75
2021/07/17 03:30:21;;;;;;;14.15;10.52;;;18.30;99.90;;;;;;5046664;28;20082;-75
2021/07/17 03:32:46;;;;;;;15.73;10.30;;;18.30;99.90;;;;;;5046528;28;20027;-75
2021/07/17 03:35:12;;;;;;;15.57;10.75;;;18.30;99.90;;;;;;5027489;28;20043;-75
2021/07/17 03:37:38;;;;;;;14.82;10.80;;;18.30;99.90;;;;;;5028863;28;20024;-75
2021/07/17 03:40:04;;;;;;;12.50;10.63;;;18.30;99.90;;;;;;5046905;28;20457;-74
2021/07/17 03:42:32;;;;;;;14.55;10.32;;;18.30;99.90;;;;;;5046001;28;20065;-75
2021/07/17 03:45:00;;;;;;;17.70;11.02;;;18.30;99.90;;;;;;5046523;28;20041;-75
2021/07/17 03:47:28;;;;;;;13.70;9.95;;;18.30;99.90;;;;;;5027173;28;20029;-75
2021/07/17 03:49:56;;;;;;;14.60;9.98;;;18.30;99.90;;;;;;5046468;28;20024;-75
2021/07/17 03:52:21;;;;;;;14.73;10.48;;;18.40;99.90;;;;;;5046589;28;20044;-75
2021/07/17 03:54:49;;;;;;;13.85;9.85;;;18.30;99.90;;;;;;5047521;28;20029;-75
2021/07/17 03:57:15;;;;;;;13.27;10.07;;;18.40;99.90;;;;;;5050082;28;20044;-75
2021/07/17 03:59:41;;;;;;;14.00;10.48;;;18.30;99.90;;;;;;5050157;28;20102;-75
2021/07/17 04:02:06;;;;;;;13.73;10.40;;;18.40;99.90;;;;;;5050052;28;21892;-75
2021/07/17 04:04:40;;;;;;;14.43;9.93;;;18.40;99.90;;;;;;5048038;28;20032;-75
2021/07/17 04:07:05;;;;;;;17.02;10.48;;;18.40;99.90;;;;;;5051110;28;20032;-75
2021/07/17 04:09:31;;;;;;;14.45;10.63;;;18.40;99.90;;;;;;5031739;28;20048;-76
2021/07/17 04:11:56;;;;;;;15.23;10.10;;;18.40;99.90;;;;;;5051186;28;20071;-76
2021/07/17 04:14:24;;;;;;;14.73;10.65;;;18.40;99.90;;;;;;5049834;28;20159;-75
2021/07/17 04:16:52;;;;;;;14.10;10.52;;;18.40;99.90;;;;;;5050778;28;20029;-75
2021/07/17 04:19:20;;;;;;;14.30;10.15;;;18.40;99.90;;;;;;5051120;28;20033;-76
2021/07/17 04:21:50;;;;;;;17.35;11.18;;;18.40;99.90;;;;;;5031906;28;20033;-74
2021/07/17 04:24:20;;;;;;;15.18;10.85;;;18.40;99.90;;;;;;5048030;28;20051;-75
2021/07/17 04:26:48;;;;;;;13.23;10.50;;;18.40;99.90;;;;;;5017554;28;20048;-75
2021/07/17 04:29:13;;;;;;;13.52;10.20;;;18.40;99.90;;;;;;5048811;28;20104;-74
2021/07/17 04:31:40;;;;;;;13.05;10.40;;;18.40;99.90;;;;;;5050680;28;20564;-75
2021/07/17 04:34:05;;;;;;;14.13;10.32;;;18.30;99.90;;;;;;5050145;28;20733;-75
2021/07/17 04:36:32;;;;;;;13.68;10.60;;;18.40;99.90;;;;;;5032391;28;20120;-75
2021/07/17 04:38:58;;;;;;;15.60;10.63;;;18.40;99.90;;;;;;5065249;28;20025;-75
2021/07/17 04:41:28;;;;;;;14.15;10.40;;;18.40;99.90;;;;;;5030878;28;20114;-75
2021/07/17 04:43:58;;;;;;;14.32;10.38;;;18.40;99.90;;;;;;5031722;28;20037;-75
2021/07/17 04:46:26;;;;;;;13.93;10.32;;;18.30;99.90;;;;;;5049840;28;20660;-75
2021/07/17 04:48:52;;;;;;;13.35;10.18;;;18.40;99.90;;;;;;5015513;28;20032;-75
2021/07/17 04:51:18;;;;;;;15.70;10.65;;;18.40;99.90;;;;;;5049525;28;20118;-76
2021/07/17 04:53:43;;;;;;;17.23;10.98;;;18.40;99.90;;;;;;5048934;28;20449;-76
2021/07/17 04:56:09;;;;;;;14.68;11.68;;;18.40;99.90;;;;;;5029798;28;20062;-76
2021/07/17 04:58:35;;;;;;;15.30;10.88;;;18.40;99.90;;;;;;5049044;28;20048;-75
2021/07/17 05:01:03;;;;;;;15.05;10.77;;;18.40;99.90;;;;;;5049897;28;20952;-75
2021/07/17 05:03:28;;;;;;;14.98;10.85;;;18.30;99.90;;;;;;5033114;28;20071;-76
2021/07/17 05:05:54;;;;;;;14.77;11.48;;;18.30;99.90;;;;;;5048662;28;21796;-75
2021/07/17 05:08:21;;;;;;;17.45;11.70;;;18.30;99.90;;;;;;5049138;28;20033;-76
2021/07/17 05:10:48;;;;;;;14.60;11.10;;;18.30;99.90;;;;;;5049165;28;20434;-74
2021/07/17 05:13:14;;;;;;;15.18;10.73;;;18.20;99.90;;;;;;5049254;28;20043;-74
2021/07/17 05:15:45;;;;;;;14.60;10.85;;;18.20;99.90;;;;;;5012354;28;20029;-74
2021/07/17 05:18:13;;;;;;;16.05;11.73;;;18.30;99.90;;;;;;5048417;28;20051;-74
2021/07/17 05:20:43;;;;;;;14.35;10.68;;;18.20;99.90;;;;;;5031143;28;20028;-75
2021/07/17 05:23:09;;;;;;;13.75;10.93;;;18.20;99.90;;;;;;5014426;28;20549;-74
2021/07/17 05:25:35;;;;;;;14.52;10.63;;;18.20;99.90;;;;;;5031355;28;20041;-75
2021/07/17 05:28:06;;;;;;;14.82;10.60;;;18.30;99.90;;;;;;5049743;28;20511;-75
2021/07/17 05:30:34;;;;;;;15.30;11.43;;;18.30;99.90;;;;;;5032598;28;20020;-74
2021/07/17 05:33:00;;;;;;;13.43;10.38;;;18.20;99.90;;;;;;5032514;28;20025;-74
2021/07/17 05:35:28;;;;;;;15.43;10.88;;;18.30;99.90;;;;;;5048592;28;20063;-74
2021/07/17 05:38:00;;;;;;;15.43;10.95;;;18.30;99.90;;;;;;5048654;28;20112;-74
2021/07/17 05:40:26;;;;;;;14.50;10.40;;;18.30;99.90;;;;;;5048263;28;20024;-75
2021/07/17 05:42:54;;;;;;;14.93;10.82;;;18.30;99.90;;;;;;5029402;28;20040;-74
2021/07/17 05:45:24;;;;;;;14.35;11.50;;;18.30;99.90;;;;;;5047335;28;20036;-75
2021/07/17 05:47:54;;;;;;;16.67;11.13;;;18.30;99.90;;;;;;5047166;28;20039;-74
2021/07/17 05:50:20;;;;;;;15.10;11.10;;;18.40;99.90;;;;;;5014654;28;20525;-75
2021/07/17 05:52:46;;;;;;;15.20;11.10;;;18.30;99.90;;;;;;5048188;28;20078;-74
2021/07/17 05:55:12;;;;;;;15.15;10.57;;;18.30;99.90;;;;;;5029858;28;20036;-74
2021/07/17 05:57:42;;;;;;;14.88;10.60;;;18.40;99.90;;;;;;5047924;28;20359;-74
2021/07/17 06:00:09;;;;;;;15.40;11.15;;;18.40;99.90;;;;;;5047543;28;20028;-74
2021/07/17 06:02:36;;;;;;;16.80;10.88;;;18.40;99.90;;;;;;5047943;28;20067;-74
2021/07/17 06:05:02;;;;;;;15.13;10.98;;;18.40;99.90;;;;;;5047467;28;20036;-74
2021/07/17 06:07:30;;;;;;;17.73;11.00;;;18.40;99.90;;;;;;5047437;28;20033;-74
2021/07/17 06:09:56;;;;;;;16.05;11.45;;;18.50;99.90;;;;;;5047610;28;20080;-74
2021/07/17 06:12:21;;;;;;;15.00;11.05;;;18.50;99.90;;;;;;5047857;28;20711;-74
2021/07/17 06:14:49;;;;;;;17.45;12.00;;;18.50;99.90;;;;;;5048059;28;20116;-75
2021/07/17 06:17:15;;;;;;;15.73;12.07;;;18.60;99.90;;;;;;5047148;28;20024;-74
2021/07/17 06:19:41;;;;;;;14.20;10.77;;;18.60;99.90;;;;;;5047408;28;20059;-75
2021/07/17 06:22:09;;;;;;;16.27;11.65;;;18.50;99.90;;;;;;5012851;28;20094;-76
2021/07/17 06:24:37;;;;;;;15.55;11.13;;;18.60;99.90;;;;;;5029155;28;20475;-75
2021/07/17 06:27:06;;;;;;;14.18;10.25;;;18.60;99.90;;;;;;5030210;28;20120;-75
2021/07/17 06:29:32;;;;;;;13.82;10.93;;;18.60;99.90;;;;;;5029480;28;20033;-75
2021/07/17 06:31:58;;;;;;;15.02;10.85;;;18.60;99.90;;;;;;5030013;28;20025;-75
2021/07/17 06:34:26;;;;;;;13.30;11.13;;;18.60;99.90;;;;;;5047429;28;20048;-76
2021/07/17 06:36:51;;;;;;;13.60;10.82;;;18.60;99.90;;;;;;5047947;28;20036;-76
2021/07/17 06:39:19;;;;;;;13.40;10.60;;;18.60;99.90;;;;;;5019877;28;20040;-76
2021/07/17 06:41:45;;;;;;;15.40;10.40;;;18.60;99.90;;;;;;5019853;28;20037;-75
2021/07/17 06:44:10;;;;;;;13.20;10.23;;;18.70;99.90;;;;;;5045432;28;20044;-76
2021/07/17 06:46:36;;;;;;;13.15;10.40;;;18.70;99.90;;;;;;5046292;28;20033;-77
2021/07/17 06:49:02;;;;;;;14.90;10.43;;;18.70;99.90;;;;;;5047214;28;20029;-76
2021/07/17 06:51:27;;;;;;;13.80;9.65;;;18.70;99.90;;;;;;5029724;28;20032;-76
2021/07/17 06:53:55;;;;;;;12.13;9.65;;;18.80;99.90;;;;;;5047517;28;20044;-76
2021/07/17 06:56:23;;;;;;;12.70;9.90;;;18.90;99.90;;;;;;5047520;28;20034;-77
2021/07/17 06:58:49;;;;;;;12.60;9.50;;;18.90;99.90;;;;;;5047283;28;20048;-77
2021/07/17 07:01:16;;;;;;;12.50;10.15;;;19.00;99.90;;;;;;5046356;28;20114;-76
2021/07/17 07:03:42;;;;;;;14.98;10.70;;;19.00;99.90;;;;;;5030522;28;20156;-75
2021/07/17 07:06:10;;;;;;;14.70;10.50;;;19.10;99.90;;;;;;5029511;28;20033;-75
2021/07/17 07:08:40;;;;;;;14.32;9.70;;;19.20;99.90;;;;;;5046174;28;21028;-75
2021/07/17 07:11:06;;;;;;;11.93;9.95;;;19.20;99.90;;;;;;5047565;28;20025;-75
2021/07/17 07:13:36;;;;;;;14.02;10.35;;;19.30;99.90;;;;;;5047766;28;20050;-76
2021/07/17 07:16:02;;;;;;;14.13;10.27;;;19.40;99.90;;;;;;5047077;28;20043;-75
2021/07/17 07:18:29;;;;;;;14.07;10.48;;;19.40;99.90;;;;;;5047252;28;20041;-75
2021/07/17 07:20:54;;;;;;;12.80;10.15;;;19.40;99.90;;;;;;5046902;28;20470;-75
2021/07/17 07:23:22;;;;;;;13.93;10.40;;;19.50;99.90;;;;;;5046732;28;20037;-77
2021/07/17 07:25:50;;;;;;;13.02;10.30;;;19.50;99.90;;;;;;5046033;28;20032;-75
2021/07/17 07:28:16;;;;;;;12.65;9.40;;;19.50;99.90;;;;;;5044473;28;20025;-76
2021/07/17 07:30:44;;;;;;;12.75;9.95;;;19.60;99.90;;;;;;5045804;28;20021;-75
2021/07/17 07:33:13;;;;;;;14.50;10.60;;;19.60;99.90;;;;;;5062323;28;20028;-75
2021/07/17 07:35:38;;;;;;;14.68;10.77;;;19.60;99.90;;;;;;5028297;28;20454;-76
2021/07/17 07:38:08;;;;;;;12.52;9.88;;;19.70;99.90;;;;;;5011835;28;20055;-77
2021/07/17 07:40:37;;;;;;;16.15;11.02;;;19.80;99.90;;;;;;5046135;28;20124;-76
2021/07/17 07:43:02;;;;;;;15.18;10.93;;;19.90;99.90;;;;;;5045687;28;20090;-74
2021/07/17 07:45:30;;;;;;;12.45;10.45;;;19.90;99.90;;;;;;5045070;28;20043;-77
2021/07/17 07:47:57;;;;;;;14.32;10.50;;;20.00;99.90;;;;;;5028500;28;20114;-78
2021/07/17 07:50:25;;;;;;;14.07;10.23;;;20.10;99.90;;;;;;5013048;28;20029;-76
2021/07/17 07:52:53;;;;;;;16.38;10.45;;;20.10;99.90;;;;;;5046739;28;20025;-73
2021/07/17 07:55:19;;;;;;;12.85;10.43;;;20.40;99.90;;;;;;5046992;28;20573;-72
2021/07/17 07:57:45;;;;;;;12.30;10.27;;;20.40;99.90;;;;;;5045447;28;20067;-73
2021/07/17 08:00:12;;;;;;;13.52;9.73;;;20.50;99.90;;;;;;5045854;28;20043;-77
2021/07/17 08:02:37;;;;;;;13.05;10.07;;;20.50;99.90;;;;;;5044853;28;20680;-76
2021/07/17 08:05:06;;;;;;;12.35;10.00;;;20.70;99.90;;;;;;5046163;28;20040;-76
2021/07/17 08:07:34;;;;;;;13.25;9.90;;;20.80;99.90;;;;;;5012186;28;20647;-76
2021/07/17 08:09:59;;;;;;;13.73;9.57;;;20.90;99.90;;;;;;5045302;28;20047;-75
2021/07/17 08:12:25;;;;;;;12.20;10.05;;;21.10;99.90;;;;;;5046019;28;20020;-75
2021/07/17 08:14:53;;;;;;;13.38;10.30;;;21.30;99.90;;;;;;5028936;28;20451;-74
2021/07/17 08:17:19;;;;;;;11.30;9.30;;;21.60;99.90;;;;;;5048209;28;20477;-72
2021/07/17 08:19:44;;;;;;;17.10;13.73;;;21.80;99.90;;;;;;5048002;28;20066;-72
2021/07/17 08:22:10;;;;;;;15.68;10.50;;;21.90;99.90;;;;;;5027028;28;20053;-71
2021/07/17 08:24:38;;;;;;;12.30;9.23;;;22.00;99.90;;;;;;5027138;28;20129;-74
2021/07/17 08:27:06;;;;;;;10.95;8.55;;;22.20;99.90;;;;;;5026119;28;20028;-73
2021/07/17 08:29:34;;;;;;;15.07;9.38;;;22.10;99.90;;;;;;5044977;28;20032;-75
2021/07/17 08:32:00;;;;;;;12.73;9.13;;;22.30;99.90;;;;;;5044598;28;20037;-76
2021/07/17 08:34:25;;;;;;;13.40;9.63;;;22.30;99.90;;;;;;5027030;28;20087;-75
2021/07/17 08:36:53;;;;;;;11.63;8.98;;;22.40;99.90;;;;;;5045480;28;20611;-76
2021/07/17 08:39:21;;;;;;;14.93;9.00;;;22.40;99.90;;;;;;5044354;28;20037;-74
2021/07/17 08:41:51;;;;;;;13.48;9.80;;;22.50;99.90;;;;;;5015762;28;20115;-74
2021/07/17 08:44:22;;;;;;;12.68;9.45;;;22.50;99.90;;;;;;5048319;28;20067;-76
2021/07/17 08:46:47;;;;;;;12.93;9.50;;;22.40;99.90;;;;;;5032665;28;20044;-75
2021/07/17 08:49:14;;;;;;;12.60;9.88;;;22.40;99.90;;;;;;5048271;28;20066;-76
2021/07/17 08:51:40;;;;;;;12.18;10.02;;;22.30;99.90;;;;;;5031497;28;20602;-75
2021/07/17 08:54:08;;;;;;;11.20;9.73;;;22.30;99.90;;;;;;5014475;28;20086;-75
2021/07/17 08:56:36;;;;;;;13.43;9.98;;;22.40;99.90;;;;;;5049001;28;20043;-75
2021/07/17 08:59:01;;;;;;;17.45;10.25;;;22.40;99.90;;;;;;5063421;28;20057;-75
2021/07/17 09:01:27;;;;;;;12.95;10.18;;;22.40;99.90;;;;;;5028997;28;20471;-76
2021/07/17 09:03:52;;;;;;;13.52;10.35;;;22.40;99.90;;;;;;5047790;28;20612;-75
2021/07/17 09:06:20;;;;;;;13.88;10.50;;;22.40;99.90;;;;;;5048293;28;20759;-75
2021/07/17 09:08:46;;;;;;;11.32;9.35;;;22.60;99.90;;;;;;5048146;28;20025;-78
2021/07/17 09:11:11;;;;;;;13.32;9.88;;;22.50;99.90;;;;;;5014975;28;20085;-80
2021/07/17 09:13:37;;;;;;;13.90;10.68;;;22.50;99.90;;;;;;5014245;28;20192;-79
2021/07/17 09:16:07;;;;;;;13.23;9.90;;;22.60;99.90;;;;;;5047611;28;20040;-75
2021/07/17 09:19:02;;;;;;;12.27;9.90;;;22.60;99.90;;;;;;5030605;28;20564;-76
2021/07/17 09:21:37;;;;;;;11.70;9.50;;;22.70;99.90;;;;;;5027808;28;20040;-74
2021/07/17 09:24:14;;;;;;;12.20;9.43;;;22.80;99.90;;;;;;5047176;28;20037;-70
2021/07/17 09:26:52;;;;;;;11.48;9.45;;;23.00;99.90;;;;;;5029553;28;20045;-70
2021/07/17 09:29:18;;;;;;;13.38;10.15;;;23.10;99.90;;;;;;5030788;28;20036;-71
2021/07/17 09:31:52;;;;;;;15.35;10.57;;;23.20;99.90;;;;;;5029530;28;20029;-77
2021/07/17 09:34:20;;;;;;;11.43;9.25;;;23.40;99.90;;;;;;5044705;28;20029;-77
2021/07/17 09:36:52;;;;;;;11.82;8.80;;;23.40;99.90;;;;;;5008725;28;20037;-76
2021/07/17 09:39:18;;;;;;;12.73;8.82;;;23.40;99.90;;;;;;5046926;28;20082;-75
2021/07/17 09:42:10;;;;;;;12.07;8.90;;;23.50;99.90;;;;;;5046051;28;20081;-75
2021/07/17 09:44:36;;;;;;;13.70;8.98;;;23.60;99.90;;;;;;4698618;28;9999830;-76
2021/07/17 09:47:13;;;;;;;10.65;8.57;;;23.70;99.90;;;;;;5030843;28;20060;-74
2021/07/17 09:49:38;;;;;;;10.33;8.33;;;23.80;99.90;;;;;;4711416;28;10000463;-74
2021/07/17 09:52:21;;;;;;;11.00;8.18;;;23.90;99.90;;;;;;5028378;28;20029;-75
2021/07/17 09:55:12;;;;;;;11.48;8.55;;;23.90;99.90;;;;;;5025779;28;20327;-75
2021/07/17 09:57:38;;;;;;;12.75;9.07;;;23.90;99.90;;;;;;5045790;28;20052;-75
2021/07/17 10:00:08;;;;;;;13.75;8.35;;;24.00;99.90;;;;;;5046546;28;20508;-77
2021/07/17 10:02:36;;;;;;;11.43;8.05;;;24.10;99.90;;;;;;5046050;28;20029;-78
2021/07/17 10:05:03;;;;;;;12.10;8.50;;;24.10;99.90;;;;;;5042743;28;20401;-82
2021/07/17 10:07:31;;;;;;;11.65;8.18;;;24.10;99.90;;;;;;5027330;28;20146;-78
2021/07/17 10:09:56;;;;;;;11.05;8.32;;;24.10;99.90;;;;;;5045899;28;20442;-79
2021/07/17 10:12:57;;;;;;;12.38;8.75;;;24.10;99.90;;;;;;5046031;28;20869;-78
2021/07/17 10:15:23;;;;;;;12.93;8.90;;;24.20;99.90;;;;;;5044501;28;20060;-77
2021/07/17 10:17:52;;;;;;;12.40;8.93;;;24.30;99.90;;;;;;5044964;28;20743;-77
2021/07/17 10:20:19;;;;;;;11.52;8.38;;;24.30;99.90;;;;;;5044855;28;20064;-77
2021/07/17 10:22:47;;;;;;;14.80;9.40;;;24.30;99.90;;;;;;5045576;28;20024;-78
2021/07/17 10:25:16;;;;;;;12.75;8.75;;;24.40;99.90;;;;;;5026954;28;20129;-77
2021/07/17 10:27:44;;;;;;;11.68;8.90;;;24.30;99.90;;;;;;5044207;28;20033;-76
2021/07/17 10:30:11;;;;;;;11.02;8.90;;;24.40;99.90;;;;;;5044995;28;20118;-77
2021/07/17 10:32:36;;;;;;;13.32;9.45;;;24.50;99.90;;;;;;5044870;28;20031;-78
2021/07/17 10:35:03;;;;;;;12.55;9.55;;;24.50;99.90;;;;;;5027060;28;20033;-80
2021/07/17 10:37:33;;;;;;;13.18;8.98;;;24.70;99.90;;;;;;5026592;28;20472;-80
2021/07/17 10:40:15;;;;;;;16.05;10.10;;;24.60;99.90;;;;;;5026533;28;20094;-79
2021/07/17 10:42:44;;;;;;;;;;;24.60;99.90;;;;;;5027036;28;20029;-79
2021/07/17 10:45:10;;;;;;;14.95;9.43;;;24.60;99.90;;;;;;5059056;28;20035;-79
2021/07/17 10:47:40;;;;;;;12.70;9.68;;;24.60;99.90;;;;;;5027992;28;20474;-80
2021/07/17 10:50:08;;;;;;;13.05;10.15;;;24.70;99.90;;;;;;5048727;28;20359;-81
2021/07/17 10:52:35;;;;;;;13.60;10.02;;;24.80;99.90;;;;;;5006432;28;20025;-80
2021/07/17 10:55:22;;;;;;;13.80;12.18;;;24.80;99.90;;;;;;5026843;28;20033;-76
2021/07/17 10:57:48;;;;;;;22.70;20.30;;;24.80;99.50;;;;;;5043298;28;20052;-76
2021/07/17 11:00:35;;;;;;;13.70;10.77;;;24.90;99.90;;;;;;5045809;28;20090;-78
2021/07/17 11:03:21;;;;;;;14.32;10.90;;;24.80;99.90;;;;;;5029728;28;20125;-79
2021/07/17 11:05:47;;;;;;;12.10;10.38;;;24.80;99.90;;;;;;5025327;28;20029;-77
2021/07/17 11:08:32;;;;;;;12.75;10.55;;;24.90;99.90;;;;;;5044100;28;20029;-78
2021/07/17 11:11:01;;;;;;;11.90;10.40;;;25.10;99.90;;;;;;5044766;28;20040;-81
2021/07/17 11:13:30;;;;;;;13.82;11.02;;;25.10;99.90;;;;;;5044477;28;20082;-79
2021/07/17 11:15:58;;;;;;;13.15;11.07;;;25.20;99.90;;;;;;5044083;28;20623;-76
2021/07/17 11:18:25;;;;;;;14.85;12.75;;;25.30;99.90;;;;;;5026048;28;20063;-72
2021/07/17 11:20:58;;;;;;;15.10;11.82;;;25.40;99.90;;;;;;5026591;28;20186;-78
2021/07/17 11:23:30;;;;;;;12.45;11.15;;;25.40;99.90;;;;;;5058349;28;20389;-78
2021/07/17 11:25:59;;;;;;;14.85;11.60;;;25.50;99.90;;;;;;5028714;28;20170;-82
2021/07/17 11:28:50;;;;;;;12.80;10.05;;;25.60;99.90;;;;;;5044817;28;20032;-76
2021/07/17 11:31:33;;;;;;;12.52;10.55;;;25.70;99.90;;;;;;5027494;28;20078;-76
2021/07/17 11:36:58;;;;;;;11.55;10.35;;;25.70;98.90;;;;;;5043610;28;20071;-79
2021/07/17 11:39:28;;;;;;;12.13;10.27;;;25.70;99.90;;;;;;5045543;28;20033;-80
2021/07/17 11:41:57;;;;;;;11.80;10.50;;;25.60;99.90;;;;;;5043997;28;20043;-79
2021/07/17 11:44:32;;;;;;;12.60;10.52;;;25.70;99.90;;;;;;5043857;28;20029;-79
2021/07/17 11:47:06;;;;;;;11.93;10.45;;;25.60;99.90;;;;;;5026308;28;20059;-78
2021/07/17 11:49:37;;;;;;;13.63;10.40;;;25.70;99.90;;;;;;5043577;28;20170;-80
2021/07/17 11:52:07;;;;;;;12.90;10.10;;;25.80;99.90;;;;;;5026005;28;20032;-76
2021/07/17 11:54:32;;;;;;;12.10;9.20;;;25.90;99.90;;;;;;5025355;28;20740;-77
2021/07/17 11:57:11;;;;;;;11.60;9.20;;;25.90;99.90;;;;;;5043936;28;20040;-78
2021/07/17 11:59:38;;;;;;;11.60;9.75;;;26.00;96.60;;;;;;5044269;28;20090;-78
2021/07/17 12:02:10;;;;;;;12.02;10.15;;;26.10;99.90;;;;;;5009863;28;20112;-78
2021/07/17 12:04:41;;;;;;;;;;;26.20;99.90;;;;;;5024862;28;20097;-77
2021/07/17 12:07:20;;;;;;;12.00;8.65;;;26.20;99.90;;;;;;5058687;28;19928;-79
2021/07/17 12:09:58;;;;;;;10.35;8.65;;;26.00;99.90;;;;;;5026180;28;20064;-79
2021/07/17 12:12:32;;;;;;;10.25;9.00;;;26.10;99.90;;;;;;5027343;28;20454;-78
2021/07/17 12:15:08;;;;;;;11.80;8.95;;;26.20;99.90;;;;;;5026141;28;20123;-78
2021/07/17 12:17:55;;;;;;;11.06;8.48;;;26.20;99.90;;;;;;5004303;28;10001255;-75
2021/07/17 12:20:30;;;;;;;11.07;8.63;;;26.20;99.90;;;;;;5029825;28;20240;-77
2021/07/17 12:23:24;;;;;;;11.45;8.55;;;26.30;99.90;;;;;;5028948;28;20031;-76
2021/07/17 12:25:57;;;;;;;10.43;8.60;;;26.20;99.90;;;;;;5046161;28;20051;-76
2021/07/17 12:28:40;;;;;;;12.45;9.18;;;26.20;99.90;;;;;;5029262;28;20047;-75
2021/07/17 12:31:13;;;;;;;13.70;9.45;;;26.20;99.90;;;;;;5062395;28;20110;-76
2021/07/17 12:33:46;;;;;;;12.35;9.20;;;26.10;99.90;;;;;;5030082;28;20033;-76
2021/07/17 12:36:21;;;;;;;12.05;9.27;;;25.90;99.10;;;;;;5048228;28;20470;-80
2021/07/17 12:38:56;;;;;;;11.75;9.25;;;25.80;99.70;;;;;;5047233;28;22041;-76
2021/07/17 12:41:33;;;;;;;10.13;8.88;;;25.90;99.90;;;;;;5047649;28;20036;-78